Portada
METAR-TAF:

METAR-TAF

Aeroports :

Avalon, Austràlia

latitud: 38-02S, longitud: 144-29E, altitud: 8 m

METAR: manca

Hora: 11:19 (00:19 UTC)

Pronòstic

L'informe es va fer fa 1 hora i 45 minuts, a les 22:34 UTC
Pronòstic vàlid del 01 a les 23 UTC al 03 a les 00 UTC
Vent 8 kt del Oest/Sud-Oest
Visibilitat 10 km o més
Cel ennuvolat a una alçada de 1000 ft
pluja
Evolucionant progressivament
l' 02 a les 05 UTC al 02 a les 07 UTC
Vent 8 kt del Oest
Visibilitat 10 km o més
Núvols disperses a una alçada de 2500 ft
Núvols disperses a una alçada de 4000 ft
A partir de les 02 a les 1200 UTC
Vent 8 kt del Nord/Nord-Oest
Visibilitat 10 km o més
Escasses núvols a una alçada de 3000 ft
Temporalment
l' 01 a les 23 UTC al 02 a les 06 UTC
Visibilitat: 5000 m
Cel ennuvolat a una alçada de 500 ft
pluja

TAF: YMAV 012234Z 0123/0300 25008KT 9999 -RA BKN010 BECMG 0205/0207 28008KT 9999 NSW SCT025 SCT040 FM021200 33008KT 9999 FEW030 TEMPO 0123/0206 5000 RA BKN005

Observacions i pronòstics meteorològics de més de 4000 aeroports (METAR i TAF).

Les estacions disponibles són els punts grocs i vermells al mapa.

Posi el ratolí al punt desitjat per veure el nom de l'estació.

Feu clic per veure les observacions i els pronòstics meteorològics.

Per canviar el mapa: feu clic els botons verds amb una creu de color negre per apropar; al botó verd amb un guió per allunyar la imatge; o en les fletxes verdes per a mapes adjacents.


METAR-TAF: